Nearby METAR Reports

 

KOAK - Oakland, California, USA
Distance from station: SSW 6mi, 9km
Updated: Sat, 24-Feb-2018 10:53pm PST
Few Clouds
Few Clouds
 Wind from NNW
Wind: NNW 3 mph , 6 km/h
Temperature: 46°F , 8°C
Dew Point: 41°F , 5°C
Humidity: 82%
Barometer: 30.33 inHg , 1027.1 hPa
Clouds: Few Clouds
Visibility: 10 miles , 16 km
Cloud details: Few Clouds 20000 ft
2018/02/25 06:53 KOAK 250653Z 34003KT 10SM FEW200 08/05 A3033 RMK AO2 SLP270 T00830050
KHWD - Hayward, California, USA
Distance from station: SSE 8mi, 12km
Updated: Sat, 24-Feb-2018 10:54pm PST
Clear
Clear
 Wind from calm
Wind: Calm
Temperature: 46°F , 8°C
Dew Point: 37°F , 3°C
Humidity: 71%
Barometer: 30.33 inHg , 1027.1 hPa
Clouds: Clear
Visibility: 10 miles , 16 km
2018/02/25 06:54 KHWD 250654Z AUTO 00000KT 10SM CLR 08/03 A3033 RMK AO2 SLP279 T00780028
KSFO - San Francisco, California, USA
Distance from station: SW 15mi, 25km
Updated: Sat, 24-Feb-2018 10:56pm PST
Few Clouds
Few Clouds
 Wind from W
Wind: W 8 mph , 13 km/h
Temperature: 48°F , 9°C
Wind Chill: 44°F , 7°C
Dew Point: 39°F , 4°C
Humidity: 71%
Barometer: 30.33 inHg , 1027.1 hPa
Clouds: Few Clouds
Visibility: 10 miles , 16 km
Cloud details: Few Clouds 20000 ft
2018/02/25 06:56 KSFO 250656Z 27007KT 10SM FEW200 09/04 A3033 RMK AO2 SLP271 T00890044 $
 
KCCR - Concord, California, USA
Distance from station: NNE 17mi, 27km
Updated: Sat, 24-Feb-2018 10:53pm PST
Clear
Clear
 Wind from SW
Wind: SW 3 mph , 6 km/h
Temperature: 46°F , 8°C
Dew Point: 39°F , 4°C
Humidity: 76%
Barometer: 30.33 inHg , 1027.1 hPa
Clouds: Clear
Visibility: 10 miles , 16 km
2018/02/25 06:53 KCCR 250653Z 22003KT 10SM CLR 08/04 A3033 RMK AO2 SLP255 T00830039
KSQL - San Carlos Airpo, California, USA
Distance from station: SSW 18mi, 29km
Updated: Sat, 24-Feb-2018 11:15pm PST
Clear
Clear
 Wind from W
Wind: W 6 mph , 9 km/h
Temperature: 46°F , 8°C
Wind Chill: 43°F , 6°C
Dew Point: 39°F , 4°C
Humidity: 76%
Barometer: 30.33 inHg , 1027.1 hPa
Clouds: Clear
Visibility: 10 miles , 16 km
2018/02/25 07:15 KSQL 250715Z AUTO 28005KT 10SM CLR 08/04 A3033 RMK AO2
KLVK - Livermore, California, USA
Distance from station: ESE 20mi, 31km
Updated: Sat, 24-Feb-2018 10:53pm PST
Clear
Clear
 Wind from calm
Wind: Calm
Temperature: 43°F , 6°C
Dew Point: 37°F , 3°C
Humidity: 81%
Barometer: 30.31 inHg , 1026.4 hPa
Clouds: Clear
Visibility: 10 miles , 16 km
2018/02/25 06:53 KLVK 250653Z AUTO 00000KT 10SM CLR 06/03 A3031 RMK AO2 SLP265 T00560033
 
KPAO - Palo Alto, California, USA
Distance from station: S 21mi, 34km
Updated: Sat, 24-Feb-2018 8:47pm PST
NOT Current
Clear
Clear
 Wind from WNW
Wind: WNW 12 mph , 19 km/h
Barometer: 30.33 inHg , 1027.1 hPa
Clouds: Clear
Visibility: 10 miles , 16 km
2018/02/25 04:47 KPAO 250447Z 30010KT 10SM SKC A3033
KHAF - Half Moon Bay, California, USA
Distance from station: SW 25mi, 41km
Updated: Sat, 24-Feb-2018 11:15pm PST
Haze, Partly cloudy
Haze, Partly cloudy
 Wind from N
Wind: N 13 mph , 20 km/h, Gust: 21 mph , 33 km/h
Temperature: 48°F , 9°C
Wind Chill: 43°F , 6°C
Dew Point: 43°F , 6°C
Humidity: 82%
Barometer: 30.30 inHg , 1026.1 hPa
Summary: Haze
Clouds: Partly cloudy
Visibility: 5 miles , 8 km
Cloud details: Partly cloudy 1400 ft
Partly cloudy 2200 ft
2018/02/25 07:15 KHAF 250715Z AUTO 35011G18KT 5SM HZ SCT014 SCT022 09/06 A3030 RMK AO2
KNUQ - Moffett Nas/Mtn, California, USA
Distance from station: SSE 26mi, 42km
Updated: Sat, 24-Feb-2018 10:56pm PST
Clear
Clear
 Wind from W
Wind: W 5 mph , 7 km/h
Temperature: 46°F , 8°C
Wind Chill: 44°F , 7°C
Dew Point: 39°F , 4°C
Humidity: 76%
Barometer: 30.34 inHg , 1027.4 hPa
Clouds: Clear
Visibility: 10 miles , 16 km
2018/02/25 06:56 KNUQ 250656Z 26004KT 10SM CLR 08/04 A3034 RMK AO2 SLP276 T00830044
 
KAPC - Napa, California, USA
Distance from station: NNW 30mi, 49km
Updated: Sat, 24-Feb-2018 10:54pm PST
Clear
Clear
 Wind from NNW
Wind: NNW 3 mph , 6 km/h
Temperature: 43°F , 6°C
Dew Point: 36°F , 2°C
Humidity: 76%
Barometer: 30.33 inHg , 1027.1 hPa
Clouds: Clear
Visibility: 10 miles , 16 km
2018/02/25 06:54 KAPC 250654Z AUTO 34003KT 10SM CLR 06/02 A3033 RMK AO2 SLP260 T00560022
KSJC - San Jose, California, USA
Distance from station: SSE 31mi, 50km
Updated: Sat, 24-Feb-2018 10:53pm PST
Few Clouds
Few Clouds
 Wind from WSW
Wind: WSW 5 mph , 7 km/h
Temperature: 46°F , 8°C
Wind Chill: 44°F , 7°C
Dew Point: 39°F , 4°C
Humidity: 76%
Barometer: 30.33 inHg , 1027.1 hPa
Clouds: Few Clouds
Visibility: 10 miles , 16 km
Cloud details: Few Clouds 1300 ft
2018/02/25 06:53 KSJC 250653Z 25004KT 10SM FEW013 08/04 A3033 RMK AO2 SLP271 T00830044 $
KDVO - Novato/Gnoss Fld, California, USA
Distance from station: NW 34mi, 54km
Updated: Sat, 24-Feb-2018 11:15pm PST
Clear
Clear
 Wind from NW
Wind: NW 15 mph , 24 km/h, Gust: 23 mph , 37 km/h
Temperature: 48°F , 9°C
Wind Chill: 42°F , 6°C
Dew Point: 37°F , 3°C
Humidity: 66%
Barometer: 30.32 inHg , 1026.8 hPa
Clouds: Clear
Visibility: 10 miles , 16 km
2018/02/25 07:15 KDVO 250715Z AUTO 32013G20KT 10SM CLR 09/03 A3032 RMK AO2
 
KRHV - San Jose/Reid, California, USA
Distance from station: SSE 37mi, 59km
Updated: Sat, 24-Feb-2018 9:59pm PST
NOT Current
Few Clouds
Few Clouds
 Wind from NNW
Wind: NNW 7 mph , 11 km/h
Temperature: 50°F , 10°C
Wind Chill: 47°F , 8°C
Dew Point: 43°F , 6°C
Humidity: 76%
Barometer: 30.32 inHg , 1026.8 hPa
Clouds: Few Clouds
Visibility: 10 miles , 16 km
Cloud details: Few Clouds 1500 ft
2018/02/25 05:59 KRHV 250559Z 33006KT 10SM FEW015 10/06 A3032 RMK LAST
KSUU - Travis Afb/Fairf, California, USA
Distance from station: NNE 37mi, 59km
Updated: Sat, 24-Feb-2018 10:58pm PST
Clear
Clear
 Wind from WSW
Wind: WSW 3 mph , 6 km/h
Temperature: 37°F , 3°C
Dew Point: 36°F , 2°C
Humidity: 93%
Barometer: 30.29 inHg , 1025.7 hPa
Clouds: Clear
Visibility: 10 miles , 16 km
2018/02/25 06:58 KSUU 250658Z AUTO 24003KT 10SM CLR 03/02 A3029 RMK AO2 SLP264 T00270020 $
KO69 - Petaluma, California, USA
Distance from station: NW 41mi, 66km
Updated: Sat, 24-Feb-2018 10:55pm PST
Clear
Clear
 Wind from W
Wind: W 7 mph , 11 km/h
Temperature: 41°F , 5°C
Wind Chill: 36°F , 2°C
Dew Point: 39°F , 4°C
Humidity: 93%
Barometer: 30.33 inHg , 1027.1 hPa
Clouds: Clear
Visibility: 10 miles , 16 km
2018/02/25 06:55 KO69 250655Z AUTO 26006KT 10SM CLR 05/04 A3033 RMK A01
 
KVCB - Vacaville, California, USA
Distance from station: NNE 44mi, 71km
Updated: Sat, 24-Feb-2018 10:53pm PST
Clear
Clear
 Wind from NW
Wind: NW 8 mph , 13 km/h
Temperature: 48°F , 9°C
Wind Chill: 44°F , 7°C
Dew Point: 36°F , 2°C
Humidity: 62%
Barometer: 30.32 inHg , 1026.8 hPa
Clouds: Clear
Visibility: 10 miles , 16 km
2018/02/25 06:53 KVCB 250653Z AUTO 32007KT 10SM CLR 09/02 A3032 RMK AO2 SLP265 T00890022